createdAt,value
2022-12-08T00:01:19.519Z,92.79
2022-12-08T00:03:47.204Z,93.32
2022-12-08T00:06:43.358Z,93.05
2022-12-08T00:09:26.808Z,93.35
2022-12-08T00:12:00.371Z,92.80
2022-12-08T00:14:36.230Z,92.81
2022-12-08T00:17:04.602Z,93.46
2022-12-08T00:19:32.058Z,93.56
2022-12-08T00:21:59.525Z,92.84
2022-12-08T00:24:31.418Z,92.96
2022-12-08T00:26:58.498Z,93.07
2022-12-08T00:29:25.334Z,93.29
2022-12-08T00:31:52.836Z,92.98
2022-12-08T00:34:20.557Z,93.10
2022-12-08T00:36:47.628Z,92.77
2022-12-08T00:39:16.676Z,92.93
2022-12-08T00:42:02.319Z,92.55
2022-12-08T00:44:29.337Z,92.81
2022-12-08T00:46:56.187Z,92.96
2022-12-08T00:49:23.295Z,92.75
2022-12-08T00:51:50.153Z,92.87
2022-12-08T00:54:18.024Z,93.70
2022-12-08T00:56:44.935Z,93.67
2022-12-08T00:59:11.890Z,93.71
2022-12-08T01:01:38.835Z,93.55
2022-12-08T01:04:07.457Z,93.10
2022-12-08T01:06:35.699Z,93.37
2022-12-08T01:09:04.932Z,93.61
2022-12-08T01:11:33.062Z,92.60
2022-12-08T01:13:59.924Z,93.15
2022-12-08T01:16:31.001Z,93.48
2022-12-08T01:18:59.557Z,93.16
2022-12-08T01:21:27.480Z,92.66
2022-12-08T01:23:55.518Z,93.13
2022-12-08T01:26:22.732Z,92.51
2022-12-08T01:28:49.732Z,93.22
2022-12-08T01:31:20.164Z,93.53
2022-12-08T01:33:48.319Z,92.73
2022-12-08T01:36:25.223Z,92.90
2022-12-08T01:38:53.624Z,93.06
2022-12-08T01:41:24.162Z,92.89
2022-12-08T01:44:14.057Z,92.79
2022-12-08T01:46:44.796Z,93.18
2022-12-08T01:49:24.988Z,92.93
2022-12-08T01:52:02.873Z,93.38
2022-12-08T01:54:34.647Z,92.49
2022-12-08T01:57:11.749Z,92.38
2022-12-08T01:59:49.836Z,92.73
2022-12-08T02:02:16.861Z,92.91
2022-12-08T02:04:43.948Z,92.18
2022-12-08T02:07:14.482Z,92.74
2022-12-08T02:09:42.782Z,92.89
2022-12-08T02:12:11.110Z,92.18
2022-12-08T02:14:38.497Z,92.43
2022-12-08T02:17:31.935Z,92.51
2022-12-08T02:20:31.249Z,92.67
2022-12-08T02:23:08.237Z,91.98
2022-12-08T02:26:31.778Z,92.62
2022-12-08T02:29:27.612Z,92.49
2022-12-08T02:32:12.488Z,92.02
2022-12-08T02:35:09.379Z,92.58
2022-12-08T02:38:01.454Z,92.82
2022-12-08T02:40:37.251Z,92.59
2022-12-08T02:43:14.413Z,92.87
2022-12-08T02:45:54.058Z,92.58
2022-12-08T02:48:21.402Z,92.43
2022-12-08T02:50:48.444Z,91.79
2022-12-08T02:55:57.808Z,92.35
2022-12-08T02:58:43.493Z,92.76
2022-12-08T03:01:35.549Z,92.73
2022-12-08T03:04:22.126Z,92.49
2022-12-08T03:07:02.653Z,91.97
2022-12-08T03:09:34.052Z,92.79
2022-12-08T03:12:20.495Z,92.36
2022-12-08T03:14:53.633Z,92.65
2022-12-08T03:17:26.139Z,91.67
2022-12-08T03:19:54.986Z,92.03
2022-12-08T03:22:25.804Z,91.61
2022-12-08T03:24:54.664Z,92.16
2022-12-08T03:27:26.664Z,92.33
2022-12-08T03:29:55.671Z,92.15
2022-12-08T03:32:27.515Z,91.62
2022-12-08T03:34:58.418Z,92.00
2022-12-08T03:37:27.409Z,92.40
2022-12-08T03:39:54.604Z,92.40
2022-12-08T03:42:21.684Z,91.46
2022-12-08T03:44:48.615Z,92.08
2022-12-08T03:47:15.456Z,91.83
2022-12-08T03:49:42.306Z,91.63
2022-12-08T03:52:09.326Z,91.91
2022-12-08T03:54:36.396Z,91.84
2022-12-08T03:57:03.284Z,91.50
2022-12-08T03:59:30.199Z,92.35
2022-12-08T04:01:57.206Z,91.79
2022-12-08T04:04:24.119Z,91.38
2022-12-08T04:06:51.308Z,92.42
2022-12-08T04:09:18.374Z,91.89
2022-12-08T04:11:45.386Z,91.87
2022-12-08T04:14:12.440Z,91.78
2022-12-08T04:16:39.463Z,92.07
2022-12-08T04:19:06.571Z,91.66
2022-12-08T04:21:33.727Z,91.72
2022-12-08T04:24:01.494Z,91.04
2022-12-08T04:26:29.162Z,91.98
2022-12-08T04:28:56.191Z,91.31
2022-12-08T04:31:23.121Z,91.96
2022-12-08T04:33:50.050Z,91.79
2022-12-08T04:36:17.047Z,91.91
2022-12-08T04:38:44.124Z,91.65
2022-12-08T04:41:11.169Z,91.34
2022-12-08T04:43:38.173Z,91.42
2022-12-08T04:46:08.930Z,91.96
2022-12-08T04:48:40.797Z,91.14
2022-12-08T04:51:16.174Z,91.45
2022-12-08T04:53:46.695Z,91.92
2022-12-08T04:56:19.054Z,91.75
2022-12-08T04:58:46.947Z,92.02
2022-12-08T05:01:14.422Z,91.91
2022-12-08T05:03:41.615Z,92.00
2022-12-08T05:06:12.281Z,92.67
2022-12-08T05:08:39.361Z,92.39
2022-12-08T05:11:09.017Z,92.22
2022-12-08T05:13:35.984Z,92.00
2022-12-08T05:16:12.569Z,92.06
2022-12-08T05:18:41.179Z,92.61
2022-12-08T05:21:08.468Z,92.83
2022-12-08T05:23:36.003Z,92.02
2022-12-08T05:26:03.091Z,92.53
2022-12-08T05:28:41.290Z,92.44
2022-12-08T05:31:09.314Z,91.77
2022-12-08T05:33:36.404Z,92.86
2022-12-08T05:36:03.521Z,92.40
2022-12-08T05:38:30.846Z,92.20
2022-12-08T05:40:58.483Z,92.64
2022-12-08T05:43:25.598Z,92.32
2022-12-08T05:45:52.818Z,92.19
2022-12-08T05:48:19.857Z,92.86
2022-12-08T05:50:48.255Z,92.44
2022-12-08T05:53:16.747Z,92.41
2022-12-08T05:55:44.406Z,92.42
2022-12-08T05:58:15.618Z,92.35
2022-12-08T06:00:42.578Z,91.89
2022-12-08T06:03:12.178Z,92.78
2022-12-08T06:05:41.378Z,92.27
2022-12-08T06:08:09.216Z,92.48
2022-12-08T06:10:39.077Z,92.28
2022-12-08T06:13:06.114Z,92.44
2022-12-08T06:15:39.702Z,91.57
2022-12-08T06:18:07.711Z,92.05
2022-12-08T06:20:35.101Z,91.65
2022-12-08T06:23:03.357Z,91.59
2022-12-08T06:25:30.471Z,91.55
2022-12-08T06:27:57.523Z,92.69
2022-12-08T06:30:24.471Z,91.74
2022-12-08T06:32:51.473Z,92.68
2022-12-08T06:35:18.303Z,92.71
2022-12-08T06:37:45.140Z,92.21
2022-12-08T06:40:12.324Z,92.36
2022-12-08T06:42:45.145Z,92.17
2022-12-08T06:45:17.730Z,91.33
2022-12-08T06:47:45.009Z,91.70
2022-12-08T06:50:13.503Z,92.16
2022-12-08T06:52:50.828Z,91.29
2022-12-08T06:55:50.836Z,91.94
2022-12-08T06:58:10.307Z,90.93
2022-12-08T07:00:37.650Z,91.68
2022-12-08T07:03:04.676Z,91.47
2022-12-08T07:05:31.718Z,91.88
2022-12-08T07:07:58.832Z,91.63
2022-12-08T07:10:25.806Z,91.34
2022-12-08T07:12:52.986Z,91.92
2022-12-08T07:15:20.004Z,91.28
2022-12-08T07:17:53.599Z,91.69
2022-12-08T07:20:23.202Z,91.12
2022-12-08T07:22:51.548Z,90.89
2022-12-08T07:25:19.255Z,91.98
2022-12-08T07:27:46.505Z,91.49
2022-12-08T07:30:14.006Z,91.77
2022-12-08T07:32:40.888Z,91.77
2022-12-08T07:35:08.901Z,92.21
2022-12-08T07:37:37.561Z,92.43
2022-12-08T07:40:06.886Z,91.92
2022-12-08T07:42:34.585Z,91.41
2022-12-08T07:45:02.196Z,92.02
2022-12-08T07:47:29.228Z,91.60
2022-12-08T07:49:56.344Z,91.53
2022-12-08T07:52:23.334Z,91.92
2022-12-08T07:54:50.261Z,91.57
2022-12-08T07:57:17.436Z,91.20
2022-12-08T07:59:44.393Z,90.97
2022-12-08T08:02:35.957Z,91.15
2022-12-08T08:05:03.305Z,91.04
2022-12-08T08:08:00.265Z,91.06
2022-12-08T08:10:24.586Z,91.38
2022-12-08T08:14:45.554Z,91.43
2022-12-08T08:17:19.684Z,91.15
2022-12-08T08:19:47.563Z,91.26
2022-12-08T08:22:20.276Z,90.56
2022-12-08T08:24:55.624Z,91.44
2022-12-08T08:27:23.042Z,90.86
2022-12-08T08:29:50.090Z,90.93
2022-12-08T08:32:17.157Z,90.36
2022-12-08T08:34:44.031Z,90.80
2022-12-08T08:37:11.011Z,91.11
2022-12-08T08:39:38.097Z,90.77
2022-12-08T08:42:05.255Z,91.04
2022-12-08T08:44:32.350Z,91.15
2022-12-08T08:46:59.380Z,90.38
2022-12-08T08:49:26.590Z,90.77
2022-12-08T08:51:53.536Z,90.64
2022-12-08T08:54:20.394Z,90.42
2022-12-08T08:56:48.204Z,89.86
2022-12-08T08:59:15.268Z,90.29
2022-12-08T09:01:42.218Z,90.14
2022-12-08T09:04:10.114Z,89.89
2022-12-08T09:06:37.319Z,90.28
2022-12-08T09:09:05.417Z,90.76
2022-12-08T09:11:33.046Z,90.85
2022-12-08T09:13:59.965Z,90.84
2022-12-08T09:16:27.198Z,90.62
2022-12-08T09:18:54.249Z,90.63
2022-12-08T09:21:25.723Z,90.50
2022-12-08T09:23:56.125Z,90.48
2022-12-08T09:26:24.741Z,90.98
2022-12-08T09:28:53.964Z,90.51
2022-12-08T09:31:22.829Z,90.68
2022-12-08T09:33:53.640Z,90.66
2022-12-08T09:36:20.793Z,90.61
2022-12-08T09:38:49.080Z,90.88
2022-12-08T09:41:40.224Z,90.04
2022-12-08T09:44:25.450Z,90.93
2022-12-08T09:46:54.467Z,90.50
2022-12-08T09:49:35.424Z,90.04
2022-12-08T09:52:04.326Z,90.18
2022-12-08T09:54:35.847Z,90.79
2022-12-08T09:57:13.136Z,90.05
2022-12-08T09:59:41.281Z,90.41
2022-12-08T10:02:24.382Z,90.31
2022-12-08T10:04:55.292Z,90.29
2022-12-08T10:07:22.533Z,90.64
2022-12-08T10:10:07.987Z,90.15
2022-12-08T10:12:51.905Z,90.60
2022-12-08T10:15:39.798Z,90.22
2022-12-08T10:18:17.900Z,90.11
2022-12-08T10:20:48.411Z,89.54
2022-12-08T10:23:32.908Z,89.51
2022-12-08T10:26:12.427Z,89.29
2022-12-08T10:28:44.729Z,88.69
2022-12-08T10:31:24.551Z,89.74
2022-12-08T10:33:59.984Z,89.53
2022-12-08T10:36:52.246Z,89.68
2022-12-08T10:39:33.094Z,90.17
2022-12-08T10:42:04.187Z,89.37
2022-12-08T10:44:31.104Z,90.24
2022-12-08T10:46:58.478Z,90.19
2022-12-08T10:49:32.251Z,90.74
2022-12-08T10:51:59.395Z,89.44
2022-12-08T10:54:33.495Z,89.83
2022-12-08T10:57:00.676Z,89.46
2022-12-08T10:59:27.944Z,88.46
2022-12-08T11:01:57.083Z,88.38
2022-12-08T11:04:42.187Z,89.09
2022-12-08T11:07:13.655Z,89.58
2022-12-08T11:09:49.408Z,89.38
2022-12-08T11:12:19.422Z,89.24
2022-12-08T11:14:56.131Z,89.44
2022-12-08T11:17:22.927Z,89.00
2022-12-08T11:20:18.939Z,88.68
2022-12-08T11:22:54.974Z,89.62
2022-12-08T11:25:27.609Z,89.49
2022-12-08T11:27:59.993Z,89.41
2022-12-08T11:30:47.539Z,90.38
2022-12-08T11:33:23.521Z,90.39
2022-12-08T11:36:03.600Z,89.46
2022-12-08T11:38:33.755Z,89.41
2022-12-08T11:41:14.174Z,89.21
2022-12-08T11:44:01.110Z,88.71
2022-12-08T11:46:36.764Z,89.96
2022-12-08T11:49:13.097Z,88.52
2022-12-08T11:51:40.070Z,89.34
2022-12-08T11:54:24.138Z,88.83
2022-12-08T11:56:57.366Z,88.97
2022-12-08T11:59:32.243Z,88.02
2022-12-08T12:02:02.617Z,86.18
2022-12-08T12:04:47.464Z,87.00
2022-12-08T12:07:42.325Z,87.01
2022-12-08T12:10:21.255Z,88.25
2022-12-08T12:13:25.230Z,88.01
2022-12-08T12:16:39.219Z,88.39
2022-12-08T12:19:14.653Z,87.96
2022-12-08T12:21:52.903Z,88.34
2022-12-08T12:24:35.546Z,87.50
2022-12-08T12:27:07.840Z,87.71
2022-12-08T12:29:39.182Z,87.33
2022-12-08T12:32:10.020Z,87.48
2022-12-08T12:34:48.982Z,87.85
2022-12-08T12:37:25.324Z,88.66
2022-12-08T12:39:52.422Z,88.51
2022-12-08T12:43:09.662Z,88.84
2022-12-08T12:45:43.372Z,89.35
2022-12-08T12:48:22.433Z,88.98
2022-12-08T12:50:55.058Z,89.39
2022-12-08T12:53:21.895Z,89.45
2022-12-08T12:56:03.839Z,89.20
2022-12-08T12:58:30.860Z,88.77
2022-12-08T13:01:12.962Z,88.81
2022-12-08T13:03:51.837Z,89.80
2022-12-08T13:06:32.316Z,89.77
2022-12-08T13:09:00.428Z,89.37
2022-12-08T13:11:27.663Z,89.40
2022-12-08T13:14:04.671Z,88.86
2022-12-08T13:16:39.885Z,88.83
2022-12-08T13:19:16.117Z,88.90
2022-12-08T13:21:43.016Z,89.40
2022-12-08T13:24:30.803Z,88.21
2022-12-08T13:27:03.908Z,88.95
2022-12-08T13:29:32.696Z,89.13
2022-12-08T13:32:04.922Z,89.04
2022-12-08T13:34:54.881Z,88.39
2022-12-08T13:37:50.716Z,88.27
2022-12-08T13:40:27.339Z,88.23
2022-12-08T13:43:16.254Z,88.49
2022-12-08T13:46:48.662Z,88.32
2022-12-08T13:57:36.707Z,87.63
2022-12-08T14:00:16.093Z,88.17
2022-12-08T14:02:49.337Z,88.17
2022-12-08T14:05:34.683Z,87.68
2022-12-08T14:08:36.301Z,88.13
2022-12-08T14:11:33.535Z,88.01
2022-12-08T14:14:45.832Z,87.94
2022-12-08T14:17:15.536Z,87.45
2022-12-08T14:19:44.884Z,87.94
2022-12-08T14:22:15.776Z,88.21
2022-12-08T14:24:47.841Z,88.47
2022-12-08T14:27:24.096Z,87.93
2022-12-08T14:29:59.959Z,89.21
2022-12-08T14:32:34.098Z,88.53
2022-12-08T14:35:06.721Z,89.50
2022-12-08T14:37:42.422Z,89.79
2022-12-08T14:40:22.711Z,89.20
2022-12-08T14:43:07.909Z,89.43
2022-12-08T14:45:47.123Z,89.60
2022-12-08T14:48:39.024Z,89.81
2022-12-08T14:51:08.842Z,89.23
2022-12-08T14:53:40.243Z,89.51
2022-12-08T14:56:31.537Z,89.55
2022-12-08T14:59:16.367Z,90.10
2022-12-08T15:01:45.112Z,90.03
2022-12-08T15:04:12.021Z,89.31
2022-12-08T15:07:00.566Z,89.88
2022-12-08T15:09:35.207Z,90.08
2022-12-08T15:12:05.004Z,89.51
2022-12-08T15:14:34.703Z,89.93
2022-12-08T15:17:01.740Z,89.68
2022-12-08T15:19:31.651Z,89.62
2022-12-08T15:22:13.597Z,90.24
2022-12-08T15:24:40.640Z,89.67
2022-12-08T15:27:10.627Z,89.57
2022-12-08T15:29:37.690Z,90.79
2022-12-08T15:32:05.896Z,89.73
2022-12-08T15:34:32.910Z,90.16
2022-12-08T15:36:59.797Z,90.69
2022-12-08T15:39:39.236Z,90.86
2022-12-08T15:42:14.911Z,90.19
2022-12-08T15:44:41.928Z,90.23
2022-12-08T15:47:19.806Z,90.97
2022-12-08T15:49:49.481Z,91.32
2022-12-08T15:52:20.854Z,90.29
2022-12-08T15:54:49.015Z,90.78
2022-12-08T15:57:53.557Z,90.42
2022-12-08T16:00:51.763Z,90.06
2022-12-08T16:04:09.006Z,90.75
2022-12-08T16:09:13.588Z,90.21
2022-12-08T16:12:08.874Z,91.29
2022-12-08T16:17:27.240Z,91.07
2022-12-08T16:19:55.150Z,90.63
2022-12-08T16:25:18.668Z,90.31
2022-12-08T16:30:33.954Z,90.74
2022-12-08T16:33:01.065Z,90.48
2022-12-08T16:35:27.977Z,90.95
2022-12-08T16:37:55.107Z,90.15
2022-12-08T16:40:22.063Z,90.28
2022-12-08T16:42:50.295Z,90.19
2022-12-08T16:45:24.873Z,90.30
2022-12-08T16:47:55.011Z,90.43
2022-12-08T16:50:28.716Z,90.56
2022-12-08T16:52:59.417Z,90.31
2022-12-08T16:55:27.406Z,90.41
2022-12-08T16:57:55.186Z,90.30
2022-12-08T17:00:24.925Z,89.57
2022-12-08T17:02:53.321Z,90.37
2022-12-08T17:05:22.318Z,89.71
2022-12-08T17:07:51.289Z,89.67
2022-12-08T17:10:23.033Z,90.58
2022-12-08T17:12:51.359Z,90.87
2022-12-08T17:15:21.575Z,90.13
2022-12-08T17:17:48.896Z,90.82
2022-12-08T17:20:20.037Z,90.47
2022-12-08T17:22:47.477Z,90.53
2022-12-08T17:25:15.500Z,90.31
2022-12-08T17:27:42.782Z,90.29
2022-12-08T17:30:14.876Z,90.91
2022-12-08T17:32:43.021Z,90.92
2022-12-08T17:35:14.236Z,90.48
2022-12-08T17:37:42.912Z,90.88
2022-12-08T17:40:12.756Z,90.17
2022-12-08T17:42:42.811Z,90.71
2022-12-08T17:45:10.219Z,91.16
2022-12-08T17:47:37.291Z,90.57
2022-12-08T17:50:06.405Z,90.60
2022-12-08T17:52:34.019Z,90.76
2022-12-08T17:55:00.889Z,90.00
2022-12-08T17:57:27.797Z,90.72
2022-12-08T17:59:54.701Z,90.42
2022-12-08T18:02:21.788Z,90.65
2022-12-08T18:04:48.670Z,90.50
2022-12-08T18:07:15.599Z,90.80
2022-12-08T18:09:42.456Z,91.55
2022-12-08T18:12:09.277Z,92.10
2022-12-08T18:14:36.312Z,91.74
2022-12-08T18:17:03.515Z,92.10
2022-12-08T18:19:30.712Z,92.66
2022-12-08T18:21:57.808Z,93.02
2022-12-08T18:24:24.915Z,92.89
2022-12-08T18:26:52.593Z,93.13
2022-12-08T18:29:20.775Z,93.25
2022-12-08T18:31:48.033Z,93.50
2022-12-08T18:34:15.138Z,93.02
2022-12-08T18:36:42.026Z,93.34
2022-12-08T18:39:24.422Z,93.59
2022-12-08T18:41:52.654Z,93.62
2022-12-08T18:44:20.139Z,93.63
2022-12-08T18:46:47.778Z,93.19
2022-12-08T18:49:18.632Z,93.29
2022-12-08T18:51:46.074Z,92.95
2022-12-08T18:54:13.784Z,93.07
2022-12-08T18:56:40.737Z,93.12
2022-12-08T18:59:11.761Z,92.99
2022-12-08T19:01:40.644Z,93.31
2022-12-08T19:04:27.785Z,93.70
2022-12-08T19:06:55.503Z,93.42
2022-12-08T19:09:22.831Z,93.49
2022-12-08T19:11:50.049Z,93.51
2022-12-08T19:14:18.405Z,92.99
2022-12-08T19:16:48.175Z,92.40
2022-12-08T19:19:15.260Z,92.27
2022-12-08T19:21:46.339Z,91.41
2022-12-08T19:24:13.744Z,91.45
2022-12-08T19:26:40.672Z,91.69
2022-12-08T19:29:07.775Z,91.57
2022-12-08T19:31:35.227Z,91.16
2022-12-08T19:34:02.287Z,91.50
2022-12-08T19:36:35.198Z,91.74
2022-12-08T19:39:21.730Z,92.32
2022-12-08T19:42:07.815Z,92.81
2022-12-08T19:44:52.612Z,92.47
2022-12-08T19:47:23.698Z,92.28
2022-12-08T19:49:51.641Z,91.75
2022-12-08T19:52:18.863Z,92.09
2022-12-08T19:54:46.384Z,91.79
2022-12-08T19:57:13.516Z,92.07
2022-12-08T19:59:40.487Z,92.40
2022-12-08T20:02:07.541Z,91.62
2022-12-08T20:04:34.743Z,92.01
2022-12-08T20:07:02.076Z,92.26
2022-12-08T20:09:29.019Z,92.14
2022-12-08T20:11:56.093Z,91.96
2022-12-08T20:14:23.476Z,92.00
2022-12-08T20:16:50.744Z,92.42
2022-12-08T20:19:18.607Z,92.98
2022-12-08T20:21:45.944Z,93.40
2022-12-08T20:24:13.033Z,93.63
2022-12-08T20:26:40.029Z,93.50
2022-12-08T20:29:07.095Z,93.70
2022-12-08T20:31:34.341Z,93.47
2022-12-08T20:34:01.880Z,93.52
2022-12-08T20:36:29.375Z,93.15
2022-12-08T20:38:57.435Z,92.91
2022-12-08T20:41:24.617Z,92.64
2022-12-08T20:43:52.122Z,91.83
2022-12-08T20:46:21.082Z,91.96
2022-12-08T20:48:48.408Z,91.49
2022-12-08T20:51:18.821Z,91.62
2022-12-08T20:53:46.451Z,91.16
2022-12-08T20:56:17.953Z,91.63
2022-12-08T20:58:45.111Z,91.35
2022-12-08T21:01:14.993Z,91.29
2022-12-08T21:03:44.163Z,91.22
2022-12-08T21:06:12.735Z,91.30
2022-12-08T21:08:41.885Z,91.02
2022-12-08T21:11:10.006Z,90.78
2022-12-08T21:13:37.941Z,91.57
2022-12-08T21:16:06.008Z,91.41
2022-12-08T21:18:38.945Z,90.95
2022-12-08T21:21:10.671Z,90.57
2022-12-08T21:23:37.557Z,90.85
2022-12-08T21:26:18.692Z,91.24
2022-12-08T21:28:46.965Z,91.00
2022-12-08T21:31:16.489Z,91.19
2022-12-08T21:33:43.487Z,90.89
2022-12-08T21:36:13.717Z,91.23
2022-12-08T21:38:42.670Z,90.94
2022-12-08T21:41:16.236Z,90.91
2022-12-08T21:43:43.302Z,91.00
2022-12-08T21:46:17.187Z,90.97
2022-12-08T21:48:44.617Z,90.78
2022-12-08T21:51:11.652Z,90.76
2022-12-08T21:53:38.630Z,90.94
2022-12-08T21:56:09.579Z,91.03
2022-12-08T21:58:36.701Z,91.18
2022-12-08T22:01:11.897Z,90.75
2022-12-08T22:03:39.970Z,91.41
2022-12-08T22:06:13.120Z,91.02
2022-12-08T22:08:41.233Z,90.88
2022-12-08T22:11:08.450Z,91.13
2022-12-08T22:13:36.279Z,91.12
2022-12-08T22:16:06.158Z,91.36
2022-12-08T22:18:34.944Z,91.24
2022-12-08T22:21:07.258Z,90.93
2022-12-08T22:23:34.604Z,91.30
2022-12-08T22:26:03.369Z,91.09
2022-12-08T22:28:33.975Z,90.83
2022-12-08T22:31:08.204Z,91.36
2022-12-08T22:33:35.775Z,90.97
2022-12-08T22:36:10.082Z,91.18
2022-12-08T22:38:37.957Z,90.84
2022-12-08T22:41:06.080Z,91.35
2022-12-08T22:43:34.125Z,91.08
2022-12-08T22:46:01.620Z,91.09
2022-12-08T22:48:29.007Z,91.35
2022-12-08T22:51:00.675Z,91.36
2022-12-08T22:53:28.612Z,91.29
2022-12-08T22:55:55.609Z,90.99
2022-12-08T22:58:22.787Z,91.73
2022-12-08T23:00:50.508Z,91.47
2022-12-08T23:03:17.819Z,91.48
2022-12-08T23:05:45.072Z,91.79
2022-12-08T23:08:15.958Z,91.29
2022-12-08T23:10:44.745Z,91.35
2022-12-08T23:13:14.049Z,91.54
2022-12-08T23:15:41.351Z,91.46
2022-12-08T23:18:12.443Z,91.49
2022-12-08T23:20:39.474Z,91.20
2022-12-08T23:23:06.935Z,91.75
2022-12-08T23:25:33.988Z,90.62
2022-12-08T23:28:01.031Z,90.63
2022-12-08T23:30:28.159Z,90.91
2022-12-08T23:32:56.361Z,90.82
2022-12-08T23:35:23.292Z,90.90
2022-12-08T23:37:50.365Z,90.75
2022-12-08T23:40:17.700Z,91.45
2022-12-08T23:42:44.809Z,90.92
2022-12-08T23:45:12.049Z,90.95
2022-12-08T23:47:38.990Z,90.76
2022-12-08T23:50:07.453Z,90.99
2022-12-08T23:52:35.371Z,91.48
2022-12-08T23:55:02.871Z,90.97
2022-12-08T23:57:30.077Z,91.02
2022-12-08T23:59:57.127Z,91.09
